createdAt,value
2022-12-28T00:00:42.233Z,6.80
2022-12-28T00:01:50.503Z,6.79
2022-12-28T00:02:50.469Z,6.80
2022-12-28T00:03:49.383Z,6.81
2022-12-28T00:04:50.914Z,6.85
2022-12-28T00:05:50.400Z,6.87
2022-12-28T00:06:42.152Z,6.89
2022-12-28T00:07:42.215Z,6.91
2022-12-28T00:08:42.113Z,6.92
2022-12-28T00:09:42.126Z,6.94
2022-12-28T00:11:08.344Z,6.94
2022-12-28T00:11:43.075Z,6.95
2022-12-28T00:12:42.073Z,6.94
2022-12-28T00:13:42.033Z,6.94
2022-12-28T00:14:42.049Z,6.97
2022-12-28T00:15:42.039Z,6.97
2022-12-28T00:16:42.100Z,6.98
2022-12-28T00:17:42.014Z,6.98
2022-12-28T00:18:42.039Z,6.99
2022-12-28T00:19:42.009Z,6.99
2022-12-28T00:20:41.963Z,6.98
2022-12-28T00:21:41.968Z,6.97
2022-12-28T00:22:41.974Z,6.95
2022-12-28T00:23:41.967Z,6.92
2022-12-28T00:24:41.931Z,6.91
2022-12-28T00:25:41.913Z,6.88
2022-12-28T00:26:41.901Z,6.88
2022-12-28T00:27:41.914Z,6.87
2022-12-28T00:28:41.902Z,6.87
2022-12-28T00:29:41.927Z,6.85
2022-12-28T00:30:41.963Z,6.84
2022-12-28T00:31:41.888Z,6.81
2022-12-28T00:32:41.867Z,6.84
2022-12-28T00:33:41.832Z,6.84
2022-12-28T00:34:41.813Z,6.84
2022-12-28T00:35:41.818Z,6.85
2022-12-28T00:37:12.380Z,6.87
2022-12-28T00:37:42.786Z,6.88
2022-12-28T00:38:41.777Z,6.91
2022-12-28T00:39:41.766Z,6.94
2022-12-28T00:40:41.753Z,6.95
2022-12-28T00:41:41.737Z,6.95
2022-12-28T00:42:41.775Z,6.95
2022-12-28T00:43:41.705Z,6.94
2022-12-28T00:44:41.705Z,6.94
2022-12-28T00:45:41.727Z,6.92
2022-12-28T00:46:41.705Z,6.88
2022-12-28T00:47:41.677Z,6.87
2022-12-28T00:48:41.666Z,6.85
2022-12-28T00:49:41.674Z,6.81
2022-12-28T00:50:41.647Z,6.80
2022-12-28T00:51:41.629Z,6.77
2022-12-28T00:52:41.651Z,6.76
2022-12-28T00:53:41.629Z,6.73
2022-12-28T00:54:41.602Z,6.71
2022-12-28T00:55:41.578Z,6.73
2022-12-28T00:56:41.582Z,6.71
2022-12-28T00:57:41.570Z,6.73
2022-12-28T00:58:41.545Z,6.70
2022-12-28T00:59:41.537Z,6.69
2022-12-28T01:00:41.648Z,6.70
2022-12-28T01:01:41.687Z,6.69
2022-12-28T01:02:41.641Z,6.67
2022-12-28T01:03:41.509Z,6.67
2022-12-28T01:04:41.495Z,6.67
2022-12-28T01:05:41.480Z,6.66
2022-12-28T01:06:41.493Z,6.64
2022-12-28T01:07:41.473Z,6.66
2022-12-28T01:08:41.430Z,6.64
2022-12-28T01:09:41.429Z,6.64
2022-12-28T01:10:41.432Z,6.64
2022-12-28T01:11:41.392Z,6.66
2022-12-28T01:12:41.401Z,6.64
2022-12-28T01:13:41.381Z,6.64
2022-12-28T01:14:41.359Z,6.64
2022-12-28T01:15:41.359Z,6.64
2022-12-28T01:16:41.379Z,6.64
2022-12-28T01:17:41.355Z,6.62
2022-12-28T01:18:41.356Z,6.62
2022-12-28T01:19:41.330Z,6.62
2022-12-28T01:20:41.322Z,6.61
2022-12-28T01:21:41.284Z,6.62
2022-12-28T01:22:41.286Z,6.64
2022-12-28T01:23:41.271Z,6.64
2022-12-28T01:24:41.255Z,6.67
2022-12-28T01:25:41.242Z,6.66
2022-12-28T01:26:41.270Z,6.66
2022-12-28T01:27:41.231Z,6.66
2022-12-28T01:28:41.218Z,6.67
2022-12-28T01:29:41.187Z,6.69
2022-12-28T01:30:41.210Z,6.70
2022-12-28T01:31:41.223Z,6.71
2022-12-28T01:32:41.171Z,6.73
2022-12-28T01:33:41.158Z,6.73
2022-12-28T01:34:41.140Z,6.74
2022-12-28T01:35:41.128Z,6.74
2022-12-28T01:36:41.111Z,6.76
2022-12-28T01:37:41.120Z,6.76
2022-12-28T01:38:41.091Z,6.74
2022-12-28T01:39:41.070Z,6.76
2022-12-28T01:40:41.082Z,6.79
2022-12-28T01:41:41.068Z,6.79
2022-12-28T01:42:41.053Z,6.77
2022-12-28T01:43:41.048Z,6.79
2022-12-28T01:44:41.016Z,6.80
2022-12-28T01:45:41.030Z,6.84
2022-12-28T01:46:41.010Z,6.87
2022-12-28T01:47:40.988Z,6.89
2022-12-28T01:48:40.996Z,6.94
2022-12-28T01:49:40.988Z,6.97
2022-12-28T01:50:40.957Z,6.99
2022-12-28T01:51:40.953Z,7.07
2022-12-28T01:52:40.924Z,7.09
2022-12-28T01:53:40.930Z,7.15
2022-12-28T01:54:40.910Z,7.21
2022-12-28T01:55:40.930Z,7.24
2022-12-28T01:56:40.877Z,7.27
2022-12-28T01:57:40.895Z,7.32
2022-12-28T01:58:40.890Z,7.40
2022-12-28T01:59:40.846Z,7.48
2022-12-28T02:00:40.836Z,7.53
2022-12-28T02:01:40.938Z,7.58
2022-12-28T02:02:40.874Z,7.60
2022-12-28T02:03:40.818Z,7.63
2022-12-28T02:04:40.800Z,7.63
2022-12-28T02:05:40.779Z,7.64
2022-12-28T02:06:40.771Z,7.68
2022-12-28T02:07:40.759Z,7.68
2022-12-28T02:08:47.999Z,7.68
2022-12-28T02:09:40.743Z,7.69
2022-12-28T02:10:47.992Z,7.71
2022-12-28T02:11:40.698Z,7.74
2022-12-28T02:12:48.065Z,7.72
2022-12-28T02:13:40.692Z,7.72
2022-12-28T02:14:47.909Z,7.71
2022-12-28T02:15:40.642Z,7.68
2022-12-28T02:16:40.674Z,7.68
2022-12-28T02:17:40.646Z,7.69
2022-12-28T02:18:40.647Z,7.69
2022-12-28T02:19:40.623Z,7.68
2022-12-28T02:20:40.612Z,7.71
2022-12-28T02:21:40.589Z,7.69
2022-12-28T02:22:40.584Z,7.71
2022-12-28T02:23:40.578Z,7.72
2022-12-28T02:24:40.567Z,7.75
2022-12-28T02:25:40.534Z,7.77
2022-12-28T02:26:40.541Z,7.79
2022-12-28T02:27:40.540Z,7.79
2022-12-28T02:28:40.523Z,7.79
2022-12-28T02:29:40.489Z,7.80
2022-12-28T02:30:40.503Z,7.82
2022-12-28T02:31:40.473Z,7.83
2022-12-28T02:32:40.514Z,7.83
2022-12-28T02:33:40.498Z,7.83
2022-12-28T02:34:40.445Z,7.83
2022-12-28T02:35:40.422Z,7.80
2022-12-28T02:36:40.421Z,7.82
2022-12-28T02:37:40.438Z,7.83
2022-12-28T02:38:40.440Z,7.86
2022-12-28T02:39:40.370Z,7.87
2022-12-28T02:40:40.386Z,7.89
2022-12-28T02:41:40.370Z,7.90
2022-12-28T02:42:40.365Z,7.93
2022-12-28T02:43:40.360Z,7.95
2022-12-28T02:44:40.332Z,8.00
2022-12-28T02:45:40.353Z,8.04
2022-12-28T02:46:40.315Z,8.04
2022-12-28T02:47:40.305Z,8.04
2022-12-28T02:48:40.295Z,8.05
2022-12-28T02:49:40.263Z,8.07
2022-12-28T02:50:40.271Z,8.08
2022-12-28T02:51:40.240Z,8.07
2022-12-28T02:52:40.236Z,8.07
2022-12-28T02:53:40.213Z,8.05
2022-12-28T02:54:40.217Z,8.05
2022-12-28T02:55:40.205Z,8.05
2022-12-28T02:56:40.192Z,8.05
2022-12-28T02:57:40.173Z,8.04
2022-12-28T02:58:40.189Z,8.04
2022-12-28T02:59:40.143Z,8.08
2022-12-28T03:00:40.127Z,8.10
2022-12-28T03:01:40.237Z,8.10
2022-12-28T03:02:40.235Z,8.11
2022-12-28T03:03:40.095Z,8.11
2022-12-28T03:04:40.121Z,8.11
2022-12-28T03:05:40.091Z,8.12
2022-12-28T03:06:40.084Z,8.15
2022-12-28T03:07:40.042Z,8.12
2022-12-28T03:08:40.051Z,8.12
2022-12-28T03:09:40.042Z,8.15
2022-12-28T03:10:40.025Z,8.18
2022-12-28T03:11:40.038Z,8.18
2022-12-28T03:12:39.984Z,8.15
2022-12-28T03:13:39.994Z,8.18
2022-12-28T03:14:39.967Z,8.15
2022-12-28T03:15:39.984Z,8.15
2022-12-28T03:16:39.963Z,8.16
2022-12-28T03:17:39.936Z,8.15
2022-12-28T03:18:39.936Z,8.16
2022-12-28T03:19:39.916Z,8.18
2022-12-28T03:20:39.894Z,8.18
2022-12-28T03:21:39.912Z,8.19
2022-12-28T03:22:39.874Z,8.18
2022-12-28T03:23:39.865Z,8.19
2022-12-28T03:24:39.836Z,8.18
2022-12-28T03:25:39.856Z,8.20
2022-12-28T03:26:39.855Z,8.23
2022-12-28T03:27:39.827Z,8.23
2022-12-28T03:28:39.816Z,8.25
2022-12-28T03:29:39.796Z,8.25
2022-12-28T03:30:39.812Z,8.25
2022-12-28T03:31:39.798Z,8.25
2022-12-28T03:32:39.779Z,8.25
2022-12-28T03:33:39.756Z,8.23
2022-12-28T03:34:39.745Z,8.22
2022-12-28T03:35:39.743Z,8.23
2022-12-28T03:36:39.726Z,8.23
2022-12-28T03:37:39.722Z,8.22
2022-12-28T03:38:39.697Z,8.23
2022-12-28T03:39:39.690Z,8.23
2022-12-28T03:40:39.667Z,8.25
2022-12-28T03:41:39.662Z,8.26
2022-12-28T03:42:39.648Z,8.23
2022-12-28T03:43:39.631Z,8.25
2022-12-28T03:44:39.649Z,8.23
2022-12-28T03:45:46.547Z,8.22
2022-12-28T03:46:40.638Z,8.22
2022-12-28T03:47:39.578Z,8.20
2022-12-28T03:48:39.595Z,8.23
2022-12-28T03:49:39.611Z,8.23
2022-12-28T03:50:39.576Z,8.22
2022-12-28T03:51:39.548Z,8.19
2022-12-28T03:52:39.560Z,8.20
2022-12-28T03:53:39.510Z,8.22
2022-12-28T03:54:39.526Z,8.23
2022-12-28T03:55:39.494Z,8.22
2022-12-28T03:56:39.541Z,8.22
2022-12-28T03:57:39.476Z,8.22
2022-12-28T03:58:39.464Z,8.22
2022-12-28T03:59:39.478Z,8.23
2022-12-28T04:00:39.452Z,8.23
2022-12-28T04:01:39.493Z,8.23
2022-12-28T04:02:39.557Z,8.25
2022-12-28T04:03:39.409Z,8.25
2022-12-28T04:04:39.416Z,8.23
2022-12-28T04:05:39.378Z,8.22
2022-12-28T04:06:39.411Z,8.22
2022-12-28T04:07:39.368Z,8.22
2022-12-28T04:08:39.360Z,8.22
2022-12-28T04:09:39.342Z,8.22
2022-12-28T04:10:39.329Z,8.20
2022-12-28T04:11:39.305Z,8.18
2022-12-28T04:12:39.279Z,8.18
2022-12-28T04:13:39.294Z,8.19
2022-12-28T04:14:46.532Z,8.19
2022-12-28T04:15:46.517Z,8.19
2022-12-28T04:16:50.798Z,8.20
2022-12-28T04:17:50.245Z,8.22
2022-12-28T04:18:46.458Z,8.22
2022-12-28T04:19:39.234Z,8.22
2022-12-28T04:20:39.195Z,8.23
2022-12-28T04:21:39.195Z,8.22
2022-12-28T04:22:39.184Z,8.20
2022-12-28T04:23:39.169Z,8.22
2022-12-28T04:24:39.181Z,8.22
2022-12-28T04:25:39.180Z,8.20
2022-12-28T04:26:39.145Z,8.19
2022-12-28T04:27:39.117Z,8.19
2022-12-28T04:28:39.115Z,8.20
2022-12-28T04:29:39.111Z,8.22
2022-12-28T04:30:39.083Z,8.23
2022-12-28T04:31:39.114Z,8.23
2022-12-28T04:32:39.066Z,8.26
2022-12-28T04:33:39.054Z,8.25
2022-12-28T04:34:43.122Z,8.23
2022-12-28T04:35:40.048Z,8.25
2022-12-28T04:36:39.012Z,8.26
2022-12-28T04:37:39.002Z,8.28
2022-12-28T04:38:38.984Z,8.28
2022-12-28T04:39:55.611Z,8.28
2022-12-28T04:40:39.974Z,8.29
2022-12-28T04:41:38.953Z,8.28
2022-12-28T04:42:38.959Z,8.29
2022-12-28T04:43:38.968Z,8.29
2022-12-28T04:44:38.919Z,8.30
2022-12-28T04:45:38.933Z,8.29
2022-12-28T04:46:38.948Z,8.30
2022-12-28T04:47:38.877Z,8.30
2022-12-28T04:48:38.880Z,8.33
2022-12-28T04:49:38.880Z,8.36
2022-12-28T04:50:38.858Z,8.37
2022-12-28T04:51:38.855Z,8.40
2022-12-28T04:52:38.839Z,8.40
2022-12-28T04:53:38.840Z,8.41
2022-12-28T04:54:38.810Z,8.43
2022-12-28T04:55:38.801Z,8.44
2022-12-28T04:56:38.779Z,8.41
2022-12-28T04:57:38.797Z,8.44
2022-12-28T04:58:38.750Z,8.41
2022-12-28T04:59:38.789Z,8.41
2022-12-28T05:00:38.771Z,8.40
2022-12-28T05:01:38.882Z,8.38
2022-12-28T05:02:38.734Z,8.41
2022-12-28T05:04:04.211Z,8.43
2022-12-28T05:04:39.681Z,8.47
2022-12-28T05:05:38.685Z,8.52
2022-12-28T05:06:38.685Z,8.50
2022-12-28T05:07:38.670Z,8.52
2022-12-28T05:08:38.881Z,8.48
2022-12-28T05:09:38.641Z,8.48
2022-12-28T05:10:38.642Z,8.47
2022-12-28T05:11:38.600Z,8.45
2022-12-28T05:12:38.602Z,8.44
2022-12-28T05:13:38.591Z,8.45
2022-12-28T05:14:38.593Z,8.44
2022-12-28T05:15:38.595Z,8.45
2022-12-28T05:16:38.586Z,8.45
2022-12-28T05:17:38.548Z,8.48
2022-12-28T05:18:38.534Z,8.50
2022-12-28T05:19:38.516Z,8.52
2022-12-28T05:20:38.525Z,8.53
2022-12-28T05:21:38.516Z,8.58
2022-12-28T05:22:41.005Z,8.59
2022-12-28T05:23:38.520Z,8.59
2022-12-28T05:24:38.485Z,8.62
2022-12-28T05:25:38.515Z,8.62
2022-12-28T05:26:38.443Z,8.65
2022-12-28T05:27:38.467Z,8.65
2022-12-28T05:28:38.438Z,8.68
2022-12-28T05:29:38.438Z,8.73
2022-12-28T05:30:38.392Z,8.76
2022-12-28T05:31:38.453Z,8.77
2022-12-28T05:32:38.382Z,8.77
2022-12-28T05:33:38.350Z,8.77
2022-12-28T05:34:38.348Z,8.77
2022-12-28T05:35:38.353Z,8.79
2022-12-28T05:36:38.361Z,8.79
2022-12-28T05:37:40.129Z,8.80
2022-12-28T05:38:38.306Z,8.80
2022-12-28T05:39:38.273Z,8.79
2022-12-28T05:40:38.276Z,8.79
2022-12-28T05:41:38.298Z,8.76
2022-12-28T05:42:38.257Z,8.74
2022-12-28T05:43:38.254Z,8.73
2022-12-28T05:44:38.225Z,8.73
2022-12-28T05:45:38.214Z,8.73
2022-12-28T05:46:38.260Z,8.74
2022-12-28T05:47:38.206Z,8.76
2022-12-28T05:48:38.202Z,8.77
2022-12-28T05:49:38.162Z,8.74
2022-12-28T05:50:38.176Z,8.73
2022-12-28T05:51:40.007Z,8.71
2022-12-28T05:52:38.861Z,8.68
2022-12-28T05:53:38.128Z,8.71
2022-12-28T05:54:38.122Z,8.76
2022-12-28T05:55:38.141Z,8.80
2022-12-28T05:56:38.092Z,8.80
2022-12-28T05:57:38.100Z,8.77
2022-12-28T05:58:38.067Z,8.77
2022-12-28T05:59:38.050Z,8.77
2022-12-28T06:00:38.052Z,8.79
2022-12-28T06:01:38.172Z,8.77
2022-12-28T06:02:38.125Z,8.79
2022-12-28T06:03:38.054Z,8.83
2022-12-28T06:04:38.015Z,8.86
2022-12-28T06:05:38.281Z,8.89
2022-12-28T06:06:37.966Z,8.91
2022-12-28T06:07:37.980Z,8.89
2022-12-28T06:08:37.976Z,8.89
2022-12-28T06:09:37.934Z,8.86
2022-12-28T06:10:37.953Z,8.83
2022-12-28T06:11:37.924Z,8.80
2022-12-28T06:12:37.922Z,8.76
2022-12-28T06:13:37.900Z,8.74
2022-12-28T06:14:37.876Z,8.76
2022-12-28T06:15:37.868Z,8.76
2022-12-28T06:16:37.937Z,8.77
2022-12-28T06:17:37.844Z,8.77
2022-12-28T06:18:37.830Z,8.77
2022-12-28T06:19:37.831Z,8.76
2022-12-28T06:20:37.813Z,8.74
2022-12-28T06:21:45.064Z,8.71
2022-12-28T06:22:45.043Z,8.73
2022-12-28T06:23:45.552Z,8.79
2022-12-28T06:24:46.027Z,8.83
2022-12-28T06:25:45.028Z,8.86
2022-12-28T06:26:37.738Z,8.92
2022-12-28T06:27:37.731Z,8.94
2022-12-28T06:28:37.725Z,8.95
2022-12-28T06:29:37.709Z,8.95
2022-12-28T06:30:37.736Z,8.98
2022-12-28T06:31:37.752Z,9.04
2022-12-28T06:32:37.680Z,9.04
2022-12-28T06:33:37.669Z,9.05
2022-12-28T06:34:37.652Z,9.05
2022-12-28T06:35:37.638Z,9.10
2022-12-28T06:36:37.662Z,9.14
2022-12-28T06:37:37.618Z,9.13
2022-12-28T06:38:37.881Z,9.14
2022-12-28T06:39:37.603Z,9.14
2022-12-28T06:41:11.232Z,9.15
2022-12-28T06:41:38.608Z,9.17
2022-12-28T06:42:37.587Z,9.17
2022-12-28T06:43:37.549Z,9.24
2022-12-28T06:44:44.174Z,9.29
2022-12-28T06:45:38.552Z,9.28
2022-12-28T06:46:37.565Z,9.32
2022-12-28T06:47:37.499Z,9.32
2022-12-28T06:48:37.529Z,9.32
2022-12-28T06:49:37.484Z,9.31
2022-12-28T06:50:40.217Z,9.33
2022-12-28T06:51:37.471Z,9.33
2022-12-28T06:52:37.461Z,9.35
2022-12-28T06:53:37.433Z,9.38
2022-12-28T06:54:37.430Z,9.39
2022-12-28T06:55:37.410Z,9.38
2022-12-28T06:56:37.416Z,9.36
2022-12-28T06:57:37.408Z,9.38
2022-12-28T06:58:37.369Z,9.38
2022-12-28T06:59:37.390Z,9.36
2022-12-28T07:00:37.370Z,9.35
2022-12-28T07:01:37.530Z,9.38
2022-12-28T07:02:41.337Z,9.38
2022-12-28T07:03:37.317Z,9.39
2022-12-28T07:04:37.315Z,9.42
2022-12-28T07:05:37.303Z,9.46
2022-12-28T07:06:37.299Z,9.50
2022-12-28T07:07:37.288Z,9.50
2022-12-28T07:08:37.281Z,9.51
2022-12-28T07:09:37.258Z,9.50
2022-12-28T07:10:37.305Z,9.50
2022-12-28T07:11:37.255Z,9.47
2022-12-28T07:12:37.300Z,9.46
2022-12-28T07:13:37.250Z,9.43
2022-12-28T07:14:37.209Z,9.42
2022-12-28T07:15:37.206Z,9.43
2022-12-28T07:17:07.539Z,9.46
2022-12-28T07:18:07.495Z,9.43
2022-12-28T07:19:07.467Z,9.43
2022-12-28T07:20:07.470Z,9.46
2022-12-28T07:21:07.458Z,9.46
2022-12-28T07:22:07.430Z,9.47
2022-12-28T07:23:07.436Z,9.47
2022-12-28T07:24:07.429Z,9.50
2022-12-28T07:25:07.422Z,9.48
2022-12-28T07:26:07.415Z,9.48
2022-12-28T07:27:07.401Z,9.47
2022-12-28T07:28:07.364Z,9.47
2022-12-28T07:29:07.379Z,9.47
2022-12-28T07:30:07.349Z,9.48
2022-12-28T07:31:07.390Z,9.50
2022-12-28T07:32:07.321Z,9.54
2022-12-28T07:33:07.312Z,9.54
2022-12-28T07:34:07.308Z,9.54
2022-12-28T07:35:07.344Z,9.56
2022-12-28T07:36:07.288Z,9.57
2022-12-28T07:37:07.280Z,9.58
2022-12-28T07:38:07.261Z,9.58
2022-12-28T07:39:07.247Z,9.60
2022-12-28T07:40:07.243Z,9.57
2022-12-28T07:41:07.507Z,9.60
2022-12-28T07:42:07.234Z,9.60
2022-12-28T07:43:07.201Z,9.60
2022-12-28T07:44:07.222Z,9.65
2022-12-28T07:45:07.183Z,9.64
2022-12-28T07:46:07.194Z,9.64
2022-12-28T07:47:07.173Z,9.65
2022-12-28T07:48:07.159Z,9.65
2022-12-28T07:49:07.129Z,9.64
2022-12-28T07:50:07.124Z,9.65
2022-12-28T07:51:07.112Z,9.66
2022-12-28T07:52:07.122Z,9.65
2022-12-28T07:53:07.092Z,9.65
2022-12-28T07:54:07.087Z,9.64
2022-12-28T07:55:07.074Z,9.64
2022-12-28T07:56:07.053Z,9.61
2022-12-28T07:57:07.053Z,9.61
2022-12-28T07:58:07.053Z,9.61
2022-12-28T07:59:07.022Z,9.61
2022-12-28T08:00:07.004Z,9.64
2022-12-28T08:01:07.164Z,9.65
2022-12-28T08:02:07.157Z,9.69
2022-12-28T08:03:07.003Z,9.71
2022-12-28T08:04:06.993Z,9.74
2022-12-28T08:05:06.979Z,9.75
2022-12-28T08:06:06.954Z,9.72
2022-12-28T08:07:06.938Z,9.72
2022-12-28T08:08:06.943Z,9.71
2022-12-28T08:09:06.930Z,9.71
2022-12-28T08:10:06.895Z,9.74
2022-12-28T08:11:06.885Z,9.75
2022-12-28T08:12:06.924Z,9.76
2022-12-28T08:13:06.867Z,9.76
2022-12-28T08:14:06.922Z,9.78
2022-12-28T08:15:06.846Z,9.78
2022-12-28T08:16:06.934Z,9.79
2022-12-28T08:17:06.836Z,9.79
2022-12-28T08:18:06.813Z,9.83
2022-12-28T08:19:06.837Z,9.79
2022-12-28T08:20:06.795Z,9.83
2022-12-28T08:21:06.768Z,9.84
2022-12-28T08:22:06.774Z,9.86
2022-12-28T08:23:06.756Z,9.86
2022-12-28T08:24:06.760Z,9.86
2022-12-28T08:25:06.730Z,9.84
2022-12-28T08:26:06.761Z,9.86
2022-12-28T08:27:06.742Z,9.87
2022-12-28T08:28:06.688Z,9.89
2022-12-28T08:29:14.951Z,9.90
2022-12-28T08:30:06.667Z,9.90
2022-12-28T08:31:06.786Z,9.93
2022-12-28T08:32:06.679Z,9.96
2022-12-28T08:33:06.662Z,9.97
2022-12-28T08:34:06.661Z,9.96
2022-12-28T08:35:06.638Z,9.96
2022-12-28T08:36:06.654Z,9.97
2022-12-28T08:37:06.600Z,9.96
2022-12-28T08:38:06.609Z,9.96
2022-12-28T08:39:06.582Z,9.97
2022-12-28T08:40:06.908Z,9.96
2022-12-28T08:41:06.549Z,9.96
2022-12-28T08:42:06.549Z,9.97
2022-12-28T08:43:06.511Z,9.99
2022-12-28T08:44:06.529Z,9.99
2022-12-28T08:45:06.498Z,9.99
2022-12-28T08:46:06.610Z,10.02
2022-12-28T08:47:06.532Z,10.04
2022-12-28T08:48:06.484Z,10.04
2022-12-28T08:49:06.651Z,10.04
2022-12-28T08:50:06.511Z,10.04
2022-12-28T08:51:06.444Z,10.05
2022-12-28T08:52:06.432Z,10.07
2022-12-28T08:53:06.422Z,10.08
2022-12-28T08:54:06.408Z,10.09
2022-12-28T08:55:06.392Z,10.08
2022-12-28T08:56:07.017Z,10.09
2022-12-28T08:57:06.374Z,10.11
2022-12-28T08:58:06.359Z,10.11
2022-12-28T08:59:06.370Z,10.12
2022-12-28T09:00:06.383Z,10.18
2022-12-28T09:01:06.415Z,10.22
2022-12-28T09:02:06.413Z,10.23
2022-12-28T09:03:06.381Z,10.23
2022-12-28T09:04:06.295Z,10.22
2022-12-28T09:05:06.281Z,10.22
2022-12-28T09:06:06.277Z,10.20
2022-12-28T09:07:06.274Z,10.20
2022-12-28T09:08:06.244Z,10.18
2022-12-28T09:09:07.080Z,10.18
2022-12-28T09:10:06.581Z,10.20
2022-12-28T09:11:06.209Z,10.20
2022-12-28T09:12:06.213Z,10.22
2022-12-28T09:13:06.204Z,10.22
2022-12-28T09:14:06.194Z,10.22
2022-12-28T09:15:06.162Z,10.25
2022-12-28T09:16:06.273Z,10.22
2022-12-28T09:17:06.145Z,10.26
2022-12-28T09:18:06.152Z,10.27
2022-12-28T09:19:06.960Z,10.29
2022-12-28T09:20:06.133Z,10.30
2022-12-28T09:21:06.106Z,10.33
2022-12-28T09:22:06.086Z,10.34
2022-12-28T09:23:06.109Z,10.36
2022-12-28T09:24:06.076Z,10.38
2022-12-28T09:25:06.053Z,10.41
2022-12-28T09:26:06.059Z,10.42
2022-12-28T09:27:06.044Z,10.42
2022-12-28T09:28:06.026Z,10.42
2022-12-28T09:29:06.041Z,10.42
2022-12-28T09:30:06.013Z,10.45
2022-12-28T09:31:06.030Z,10.48
2022-12-28T09:32:05.977Z,10.47
2022-12-28T09:33:05.983Z,10.47
2022-12-28T09:35:06.938Z,10.51
2022-12-28T09:36:05.933Z,10.52
2022-12-28T09:37:05.924Z,10.53
2022-12-28T09:38:05.935Z,10.52
2022-12-28T09:39:06.012Z,10.51
2022-12-28T09:40:05.899Z,10.48
2022-12-28T09:41:05.862Z,10.52
2022-12-28T09:42:05.916Z,10.55
2022-12-28T09:43:05.882Z,10.52
2022-12-28T09:44:05.837Z,10.55
2022-12-28T09:45:05.829Z,10.59
2022-12-28T09:46:05.858Z,10.61
2022-12-28T09:47:05.828Z,10.59
2022-12-28T09:48:05.798Z,10.61
2022-12-28T09:49:05.797Z,10.63
2022-12-28T09:50:06.638Z,10.66
2022-12-28T09:51:05.769Z,10.67
2022-12-28T09:52:05.743Z,10.68
2022-12-28T09:53:05.795Z,10.70
2022-12-28T09:54:05.752Z,10.73
2022-12-28T09:55:05.720Z,10.74
2022-12-28T09:56:05.707Z,10.76
2022-12-28T09:57:05.707Z,10.73
2022-12-28T09:58:05.701Z,10.73
2022-12-28T09:59:05.669Z,10.74
2022-12-28T10:00:05.686Z,10.76
2022-12-28T10:01:05.729Z,10.76
2022-12-28T10:02:05.884Z,10.79
2022-12-28T10:03:05.657Z,10.79
2022-12-28T10:04:05.628Z,10.79
2022-12-28T10:05:05.590Z,10.79
2022-12-28T10:06:05.848Z,10.81
2022-12-28T10:07:05.621Z,10.84
2022-12-28T10:08:05.579Z,10.85
2022-12-28T10:09:05.547Z,10.85
2022-12-28T10:10:05.540Z,10.86
2022-12-28T10:11:05.552Z,10.86
2022-12-28T10:12:05.512Z,10.84
2022-12-28T10:13:09.358Z,10.86
2022-12-28T10:14:06.507Z,10.88
2022-12-28T10:15:05.542Z,10.86
2022-12-28T10:16:05.785Z,10.88
2022-12-28T10:17:05.466Z,10.91
2022-12-28T10:18:05.472Z,10.86
2022-12-28T10:19:05.438Z,10.86
2022-12-28T10:20:05.437Z,10.88
2022-12-28T10:21:05.443Z,10.89
2022-12-28T10:22:05.405Z,10.86
2022-12-28T10:23:05.411Z,10.86
2022-12-28T10:24:30.226Z,10.86
2022-12-28T10:25:06.372Z,10.81
2022-12-28T10:26:05.353Z,10.84
2022-12-28T10:27:05.339Z,10.85
2022-12-28T10:28:05.346Z,10.88
2022-12-28T10:29:05.315Z,10.92
2022-12-28T10:30:05.316Z,10.92
2022-12-28T10:31:05.357Z,10.97
2022-12-28T10:32:05.260Z,11.00
2022-12-28T10:33:06.967Z,11.00
2022-12-28T10:34:05.270Z,11.03
2022-12-28T10:35:05.254Z,11.07
2022-12-28T10:36:05.224Z,11.07
2022-12-28T10:37:05.229Z,11.09
2022-12-28T10:38:05.234Z,11.10
2022-12-28T10:39:05.199Z,11.10
2022-12-28T10:40:05.344Z,11.10
2022-12-28T10:41:05.194Z,11.11
2022-12-28T10:42:05.165Z,11.14
2022-12-28T10:43:10.402Z,11.15
2022-12-28T10:44:37.849Z,11.15
2022-12-28T10:45:06.184Z,11.17
2022-12-28T10:46:05.372Z,11.17
2022-12-28T10:47:05.162Z,11.19
2022-12-28T10:48:05.112Z,11.19
2022-12-28T10:49:05.085Z,11.11
2022-12-28T10:51:06.058Z,11.15
2022-12-28T10:52:05.056Z,11.18
2022-12-28T10:53:05.061Z,11.15
2022-12-28T10:54:05.030Z,11.15
2022-12-28T10:55:08.169Z,11.19
2022-12-28T10:56:05.278Z,11.17
2022-12-28T10:57:04.988Z,11.21
2022-12-28T10:58:28.609Z,11.19
2022-12-28T10:59:06.003Z,11.21
2022-12-28T11:00:05.043Z,11.22
2022-12-28T11:01:05.151Z,11.17
2022-12-28T11:02:05.141Z,11.21
2022-12-28T11:03:05.078Z,11.19
2022-12-28T11:04:04.959Z,11.21
2022-12-28T11:05:04.888Z,11.24
2022-12-28T11:06:04.898Z,11.21
2022-12-28T11:07:04.876Z,11.18
2022-12-28T11:08:04.888Z,11.17
2022-12-28T11:09:04.857Z,11.17
2022-12-28T11:10:04.973Z,11.17
2022-12-28T11:11:04.862Z,11.11
2022-12-28T11:12:04.826Z,11.11
2022-12-28T11:13:04.797Z,11.11
2022-12-28T11:14:04.807Z,11.14
2022-12-28T11:15:04.768Z,11.14
2022-12-28T11:16:06.181Z,11.14
2022-12-28T11:17:04.766Z,11.15
2022-12-28T11:18:04.764Z,11.15
2022-12-28T11:19:04.719Z,11.14
2022-12-28T11:20:04.833Z,11.14
2022-12-28T11:21:04.723Z,11.09
2022-12-28T11:22:04.696Z,11.06
2022-12-28T11:23:04.700Z,11.04
2022-12-28T11:24:04.689Z,11.03
2022-12-28T11:25:04.661Z,11.02
2022-12-28T11:26:04.662Z,11.00
2022-12-28T11:27:04.629Z,10.99
2022-12-28T11:28:04.642Z,10.99
2022-12-28T11:29:04.692Z,10.99
2022-12-28T11:30:04.609Z,10.97
2022-12-28T11:31:04.588Z,10.97
2022-12-28T11:32:04.585Z,10.96
2022-12-28T11:33:04.643Z,10.96
2022-12-28T11:34:04.593Z,10.92
2022-12-28T11:35:04.560Z,10.92
2022-12-28T11:36:09.868Z,10.92
2022-12-28T11:37:05.663Z,10.92
2022-12-28T11:38:04.639Z,10.94
2022-12-28T11:39:04.541Z,10.94
2022-12-28T11:40:04.534Z,10.94
2022-12-28T11:41:04.533Z,10.94
2022-12-28T11:42:38.453Z,10.94
2022-12-28T11:43:05.751Z,10.94
2022-12-28T11:44:04.447Z,10.92
2022-12-28T11:45:04.438Z,10.91
2022-12-28T11:46:04.447Z,10.89
2022-12-28T11:47:04.423Z,10.89
2022-12-28T11:48:04.409Z,10.89
2022-12-28T11:49:04.369Z,10.91
2022-12-28T11:50:04.372Z,10.89
2022-12-28T11:51:04.384Z,10.91
2022-12-28T11:52:04.343Z,10.88
2022-12-28T11:53:07.819Z,10.85
2022-12-28T11:54:05.339Z,10.85
2022-12-28T11:55:04.326Z,10.85
2022-12-28T11:56:04.296Z,10.84
2022-12-28T11:57:04.286Z,10.85
2022-12-28T11:58:04.283Z,10.85
2022-12-28T11:59:04.275Z,10.85
2022-12-28T12:00:04.244Z,10.85
2022-12-28T12:01:04.282Z,10.85
2022-12-28T12:02:04.257Z,10.86
2022-12-28T12:03:04.373Z,10.85
2022-12-28T12:04:04.204Z,10.84
2022-12-28T12:05:04.189Z,10.84
2022-12-28T12:06:04.164Z,10.82
2022-12-28T12:07:04.157Z,10.85
2022-12-28T12:08:04.191Z,10.88
2022-12-28T12:09:04.137Z,10.89
2022-12-28T12:10:04.118Z,10.92
2022-12-28T12:11:04.121Z,10.96
2022-12-28T12:12:04.120Z,10.96
2022-12-28T12:13:04.111Z,10.97
2022-12-28T12:14:04.076Z,11.00
2022-12-28T12:15:04.077Z,11.04
2022-12-28T12:16:04.090Z,11.07
2022-12-28T12:17:04.138Z,11.09
2022-12-28T12:18:04.100Z,11.10
2022-12-28T12:19:04.020Z,11.09
2022-12-28T12:20:04.039Z,11.09
2022-12-28T12:21:04.026Z,11.10
2022-12-28T12:22:04.235Z,11.10
2022-12-28T12:23:03.989Z,11.10
2022-12-28T12:24:03.989Z,11.09
2022-12-28T12:25:03.944Z,11.06
2022-12-28T12:26:03.949Z,11.04
2022-12-28T12:27:10.187Z,11.04
2022-12-28T12:28:04.927Z,11.06
2022-12-28T12:29:03.915Z,11.03
2022-12-28T12:30:03.986Z,11.02
2022-12-28T12:31:03.960Z,11.00
2022-12-28T12:32:03.909Z,10.99
2022-12-28T12:33:03.863Z,10.97
2022-12-28T12:34:03.844Z,10.97
2022-12-28T12:35:03.839Z,10.97
2022-12-28T12:36:03.818Z,10.92
2022-12-28T12:37:03.800Z,10.91
2022-12-28T12:38:11.065Z,10.92
2022-12-28T12:39:11.038Z,10.92
2022-12-28T12:40:11.167Z,10.94
2022-12-28T12:41:03.767Z,10.97
2022-12-28T12:42:03.746Z,10.97
2022-12-28T12:43:03.747Z,10.99
2022-12-28T12:44:03.737Z,10.99
2022-12-28T12:45:03.732Z,10.99
2022-12-28T12:46:03.740Z,10.96
2022-12-28T12:47:05.844Z,10.97
2022-12-28T12:48:03.690Z,10.99
2022-12-28T12:49:03.676Z,10.97
2022-12-28T12:50:03.669Z,10.96
2022-12-28T12:51:03.648Z,10.96
2022-12-28T12:52:03.657Z,10.96
2022-12-28T12:53:03.621Z,10.96
2022-12-28T12:54:03.634Z,10.94
2022-12-28T12:55:03.609Z,10.94
2022-12-28T12:56:03.593Z,10.94
2022-12-28T12:57:03.586Z,10.94
2022-12-28T12:58:03.592Z,10.94
2022-12-28T12:59:03.558Z,10.92
2022-12-28T13:00:03.543Z,10.91
2022-12-28T13:01:03.668Z,10.91
2022-12-28T13:02:03.915Z,10.88
2022-12-28T13:03:03.587Z,10.88
2022-12-28T13:04:03.515Z,10.88
2022-12-28T13:05:03.487Z,10.85
2022-12-28T13:06:03.486Z,10.86
2022-12-28T13:07:03.458Z,10.84
2022-12-28T13:08:03.485Z,10.81
2022-12-28T13:09:05.783Z,10.81
2022-12-28T13:10:03.438Z,10.79
2022-12-28T13:11:03.427Z,10.81
2022-12-28T13:12:03.415Z,10.84